Time,TemperatureF,DewpointF,PressureIn,WindDirection,WindDirectionDegrees,WindSpeedMPH,WindSpeedGustMPH,Humidity,HourlyPrecipIn,Conditions,Clouds,dailyrainin,SoftwareType,DateUTC
2013-04-27 00:03:00,44.0,34.0,-100.00,SSW,201,0.0,8.0,69,-99.99,,,-99.99,,2013-04-27 04:03:00,
2013-04-27 00:13:00,44.0,34.0,-100.00,WNW,300,0.0,8.0,68,-99.99,,,-99.99,,2013-04-27 04:13:00,
2013-04-27 00:23:00,44.0,34.0,-100.00,West,259,0.0,8.0,69,-99.99,,,-99.99,,2013-04-27 04:23:00,
2013-04-27 00:33:00,43.0,34.0,-100.00,SW,218,1.0,8.0,71,-99.99,,,-99.99,,2013-04-27 04:33:00,
2013-04-27 00:43:00,43.0,34.0,-100.00,SW,224,0.0,8.0,72,-99.99,,,-99.99,,2013-04-27 04:43:00,
2013-04-27 00:52:00,42.0,34.0,-100.00,WSW,247,1.0,8.0,72,-99.99,,,-99.99,,2013-04-27 04:52:00,
2013-04-27 01:02:00,42.0,32.0,-100.00,SW,232,0.0,8.0,72,-99.99,,,-99.99,,2013-04-27 05:02:00,
2013-04-27 01:12:00,41.0,32.0,-100.00,North,0,0.0,8.0,75,-99.99,,,-99.99,,2013-04-27 05:12:00,
2013-04-27 01:22:00,42.0,32.0,-100.00,West,269,0.0,8.0,72,-99.99,,,-99.99,,2013-04-27 05:22:00,
2013-04-27 01:32:00,41.0,34.0,-100.00,WNW,286,0.0,8.0,76,-99.99,,,-99.99,,2013-04-27 05:32:00,
2013-04-27 01:42:00,41.0,32.0,-100.00,SE,134,0.0,8.0,76,-99.99,,,-99.99,,2013-04-27 05:42:00,
2013-04-27 01:52:00,40.0,34.0,-100.00,SSW,199,1.0,8.0,80,-99.99,,,-99.99,,2013-04-27 05:52:00,
2013-04-27 02:02:00,40.0,32.0,-100.00,ESE,121,0.0,8.0,78,-99.99,,,-99.99,,2013-04-27 06:02:00,
2013-04-27 02:12:00,42.0,36.0,-100.00,WSW,241,1.0,8.0,81,-99.99,,,-99.99,,2013-04-27 06:12:00,
2013-04-27 02:22:00,39.0,32.0,-100.00,SSW,211,1.0,8.0,80,0.00,,,-99.99,,2013-04-27 06:22:00,
2013-04-27 02:32:00,39.0,32.0,-100.00,SW,235,0.0,8.0,81,-99.99,,,-99.99,,2013-04-27 06:32:00,
2013-04-27 02:42:00,39.0,32.0,-100.00,WSW,248,1.0,8.0,80,-99.99,,,-99.99,,2013-04-27 06:42:00,
2013-04-27 02:52:00,38.0,32.0,-100.00,SW,234,0.0,8.0,81,-99.99,,,-99.99,,2013-04-27 06:52:00,
2013-04-27 03:01:00,38.0,32.0,-100.00,WSW,241,0.0,8.0,81,-99.99,,,-99.99,,2013-04-27 07:01:00,
2013-04-27 03:11:00,38.0,32.0,-100.00,NNE,14,0.0,8.0,84,-99.99,,,-99.99,,2013-04-27 07:11:00,
2013-04-27 03:21:00,38.0,32.0,-100.00,SSE,159,0.0,8.0,84,-99.99,,,-99.99,,2013-04-27 07:21:00,
2013-04-27 03:32:00,37.0,32.0,-100.00,NNE,15,0.0,8.0,84,-99.99,,,-99.99,,2013-04-27 07:32:00,
2013-04-27 03:42:00,38.0,32.0,-100.00,WSW,249,1.0,1.0,85,-99.99,,,-99.99,,2013-04-27 07:42:00,
2013-04-27 03:52:00,37.0,32.0,-100.00,North,2,0.0,1.0,85,-99.99,,,-99.99,,2013-04-27 07:52:00,
2013-04-27 04:02:00,40.0,36.0,-100.00,WSW,255,0.0,1.0,86,-99.99,,,-99.99,,2013-04-27 08:02:00,
2013-04-27 04:12:00,39.0,36.0,-100.00,WSW,248,1.0,1.0,88,-99.99,,,-99.99,,2013-04-27 08:12:00,
2013-04-27 04:21:00,40.0,36.0,-100.00,SW,220,0.0,1.0,86,-99.99,,,-99.99,,2013-04-27 08:21:00,
2013-04-27 04:33:00,39.0,34.0,-100.00,West,269,0.0,1.0,88,-99.99,,,-99.99,,2013-04-27 08:33:00,
2013-04-27 04:42:00,38.0,34.0,-100.00,West,265,0.0,1.0,89,-99.99,,,-99.99,,2013-04-27 08:42:00,
2013-04-27 04:51:00,38.0,34.0,-100.00,WSW,242,0.0,1.0,88,-99.99,,,-99.99,,2013-04-27 08:51:00,
2013-04-27 05:01:00,38.0,34.0,-100.00,SW,216,1.0,1.0,89,-99.99,,,-99.99,,2013-04-27 09:01:00,
2013-04-27 05:11:00,38.0,34.0,-100.00,WNW,285,0.0,1.0,89,-99.99,,,-99.99,,2013-04-27 09:11:00,
2013-04-27 05:21:00,39.0,36.0,-100.00,NNW,333,0.0,1.0,89,-99.99,,,-99.99,,2013-04-27 09:21:00,
2013-04-27 05:33:00,35.0,32.0,-100.00,NW,321,0.0,1.0,88,-99.99,,,-99.99,,2013-04-27 09:33:00,
2013-04-27 05:43:00,38.0,34.0,-100.00,South,180,0.0,1.0,90,2.83,,,-99.99,,2013-04-27 09:43:00,
2013-04-27 05:53:00,37.0,34.0,-100.00,SE,141,0.0,1.0,90,-99.99,,,-99.99,,2013-04-27 09:53:00,
2013-04-27 06:03:00,37.0,34.0,-100.00,SSW,201,0.0,1.0,91,-99.99,,,-99.99,,2013-04-27 10:03:00,
2013-04-27 06:12:00,37.0,34.0,-100.00,NW,320,0.0,1.0,91,-99.99,,,-99.99,,2013-04-27 10:12:00,
2013-04-27 06:22:00,37.0,34.0,-100.00,WSW,244,0.0,1.0,91,-99.99,,,-99.99,,2013-04-27 10:22:00,
2013-04-27 06:33:00,34.0,32.0,-100.00,ENE,59,0.0,1.0,90,-99.99,,,-99.99,,2013-04-27 10:33:00,
2013-04-27 06:42:00,37.0,34.0,-100.00,SW,228,0.0,1.0,91,-99.99,,,-99.99,,2013-04-27 10:42:00,
2013-04-27 06:52:00,37.0,34.0,-100.00,WSW,240,0.0,1.0,91,-99.99,,,-99.99,,2013-04-27 10:52:00,
2013-04-27 07:02:00,37.0,34.0,-100.00,SSW,196,0.0,1.0,93,-99.99,,,-99.99,,2013-04-27 11:02:00,
2013-04-27 07:12:00,37.0,34.0,-100.00,WSW,237,0.0,1.0,93,-99.99,,,-99.99,,2013-04-27 11:12:00,
2013-04-27 07:22:00,37.0,34.0,-100.00,WSW,245,0.0,1.0,93,-99.99,,,-99.99,,2013-04-27 11:22:00,
2013-04-27 07:32:00,37.0,34.0,-100.00,WSW,254,0.0,1.0,93,-99.99,,,-99.99,,2013-04-27 11:32:00,
2013-04-27 07:42:00,39.0,36.0,-100.00,WNW,293,0.0,1.0,90,-99.99,,,-99.99,,2013-04-27 11:42:00,
2013-04-27 07:52:00,39.0,34.0,-100.00,WSW,247,0.0,1.0,86,-99.99,,,-99.99,,2013-04-27 11:52:00,
2013-04-27 08:01:00,40.0,36.0,-100.00,NNW,336,0.0,1.0,86,-99.99,,,-99.99,,2013-04-27 12:01:00,
2013-04-27 08:11:00,39.0,34.0,-100.00,South,190,0.0,1.0,84,-99.99,,,-99.99,,2013-04-27 12:11:00,
2013-04-27 08:22:00,42.0,37.0,-100.00,SSW,197,0.0,1.0,84,-99.99,,,-99.99,,2013-04-27 12:22:00,
2013-04-27 08:32:00,40.0,32.0,-100.00,NW,324,0.0,1.0,77,-99.99,,,-99.99,,2013-04-27 12:32:00,
2013-04-27 08:42:00,42.0,34.0,-100.00,NW,323,0.0,1.0,75,-99.99,,,-99.99,,2013-04-27 12:42:00,
2013-04-27 08:52:00,43.0,34.0,-100.00,WNW,293,0.0,1.0,71,0.00,,,-99.99,,2013-04-27 12:52:00,
2013-04-27 09:02:00,48.0,37.0,-100.00,WNW,295,1.0,1.0,71,-99.99,,,-99.99,,2013-04-27 13:02:00,
2013-04-27 09:12:00,46.0,34.0,-100.00,NNW,347,0.0,1.0,67,-99.99,,,-99.99,,2013-04-27 13:12:00,
2013-04-27 09:21:00,49.0,36.0,-100.00,NW,313,0.0,1.0,62,-99.99,,,-99.99,,2013-04-27 13:21:00,
2013-04-27 09:32:00,51.0,36.0,-100.00,WNW,286,0.0,1.0,58,-99.99,,,-99.99,,2013-04-27 13:32:00,
2013-04-27 09:42:00,52.0,36.0,-100.00,WNW,282,1.0,1.0,54,-99.99,,,-99.99,,2013-04-27 13:42:00,
2013-04-27 09:52:00,55.0,34.0,-100.00,WSW,247,1.0,2.0,47,-99.99,,,-99.99,,2013-04-27 13:52:00,
2013-04-27 10:02:00,56.0,34.0,-100.00,NW,312,1.0,2.0,44,-99.99,,,-99.99,,2013-04-27 14:02:00,
2013-04-27 10:11:00,58.0,34.0,-100.00,NW,314,1.0,2.0,41,-99.99,,,-99.99,,2013-04-27 14:11:00,
2013-04-27 10:21:00,58.0,34.0,-100.00,WNW,292,2.0,2.0,40,-99.99,,,-99.99,,2013-04-27 14:21:00,
2013-04-27 10:32:00,60.0,32.0,-100.00,NNW,327,2.0,2.0,37,-99.99,,,-99.99,,2013-04-27 14:32:00,
2013-04-27 10:42:00,60.0,32.0,-100.00,WNW,285,1.0,2.0,34,-99.99,,,-99.99,,2013-04-27 14:42:00,
2013-04-27 10:52:00,62.0,32.0,-100.00,NE,48,1.0,2.0,34,-99.99,,,-99.99,,2013-04-27 14:52:00,
2013-04-27 11:01:00,62.0,32.0,-100.00,SW,228,2.0,2.0,31,-99.99,,,-99.99,,2013-04-27 15:01:00,
2013-04-27 11:12:00,62.0,32.0,-100.00,NNW,338,2.0,4.0,31,-99.99,,,-99.99,,2013-04-27 15:12:00,
2013-04-27 11:22:00,63.0,32.0,-100.00,WSW,258,2.0,4.0,31,-99.99,,,-99.99,,2013-04-27 15:22:00,
2013-04-27 11:33:00,63.0,27.0,-100.00,West,264,5.0,8.0,25,-99.99,,,-99.99,,2013-04-27 15:33:00,
2013-04-27 11:43:00,63.0,27.0,-100.00,West,264,6.0,8.0,25,-99.99,,,-99.99,,2013-04-27 15:43:00,
2013-04-27 11:52:00,63.0,27.0,-100.00,West,264,7.0,8.0,25,-99.99,,,-99.99,,2013-04-27 15:52:00,
2013-04-27 12:03:00,64.0,30.0,-100.00,SW,220,7.0,8.0,27,0.00,,,-99.99,,2013-04-27 16:03:00,
2013-04-27 12:13:00,64.0,25.0,-100.00,WNW,299,6.0,10.0,22,0.00,,,-99.99,,2013-04-27 16:13:00,
2013-04-27 12:22:00,65.0,27.0,-100.00,WNW,302,7.0,10.0,23,0.00,,,-99.99,,2013-04-27 16:22:00,
2013-04-27 12:33:00,65.0,27.0,-100.00,WSW,237,6.0,10.0,23,0.00,,,-99.99,,2013-04-27 16:33:00,
2013-04-27 12:42:00,66.0,25.0,-100.00,NW,307,4.0,10.0,20,-99.99,,,-99.99,,2013-04-27 16:42:00,
2013-04-27 12:52:00,66.0,27.0,-100.00,WSW,237,6.0,10.0,22,-99.99,,,-99.99,,2013-04-27 16:52:00,
2013-04-27 13:02:00,66.0,27.0,-100.00,West,280,5.0,10.0,22,-99.99,,,-99.99,,2013-04-27 17:02:00,
2013-04-27 13:12:00,67.0,30.0,-100.00,NNW,337,4.0,10.0,24,-99.99,,,-99.99,,2013-04-27 17:12:00,
2013-04-27 13:22:00,69.0,30.0,-100.00,North,352,5.0,10.0,23,-99.99,,,-99.99,,2013-04-27 17:22:00,
2013-04-27 13:32:00,69.0,30.0,-100.00,NNW,340,4.0,10.0,23,-99.99,,,-99.99,,2013-04-27 17:32:00,
2013-04-27 13:42:00,68.0,28.0,-100.00,West,261,5.0,10.0,22,-99.99,,,-99.99,,2013-04-27 17:42:00,
2013-04-27 13:53:00,72.0,32.0,-100.00,West,259,4.0,10.0,24,-99.99,,,-99.99,,2013-04-27 17:53:00,
2013-04-27 14:02:00,70.0,30.0,-100.00,WSW,254,5.0,10.0,22,-99.99,,,-99.99,,2013-04-27 18:02:00,
2013-04-27 14:12:00,69.0,27.0,-100.00,West,279,3.0,10.0,20,-99.99,,,-99.99,,2013-04-27 18:12:00,
2013-04-27 14:22:00,70.0,28.0,-100.00,West,273,7.0,10.0,20,-99.99,,,-99.99,,2013-04-27 18:22:00,
2013-04-27 14:32:00,71.0,32.0,-100.00,SSW,192,4.0,10.0,24,-99.99,,,-99.99,,2013-04-27 18:32:00,
2013-04-27 14:42:00,72.0,32.0,-100.00,WNW,293,4.0,10.0,22,-99.99,,,-99.99,,2013-04-27 18:42:00,
2013-04-27 14:52:00,71.0,32.0,-100.00,WSW,256,4.0,10.0,22,-99.99,,,-99.99,,2013-04-27 18:52:00,
2013-04-27 15:02:00,72.0,32.0,-100.00,WSW,240,2.0,10.0,22,0.00,,,-99.99,,2013-04-27 19:02:00,
2013-04-27 15:11:00,71.0,32.0,-100.00,NNW,340,3.0,10.0,22,0.00,,,-99.99,,2013-04-27 19:11:00,
2013-04-27 15:21:00,72.0,32.0,-100.00,NNW,327,1.0,10.0,24,0.00,,,-99.99,,2013-04-27 19:21:00,
2013-04-27 15:32:00,72.0,32.0,-100.00,WNW,297,3.0,10.0,23,0.00,,,-99.99,,2013-04-27 19:32:00,
2013-04-27 15:42:00,73.0,32.0,-100.00,North,1,2.0,10.0,22,0.00,,,-99.99,,2013-04-27 19:42:00,
2013-04-27 15:52:00,73.0,32.0,-100.00,WSW,252,3.0,10.0,22,-99.99,,,-99.99,,2013-04-27 19:52:00,
2013-04-27 16:02:00,73.0,30.0,-100.00,North,352,6.0,10.0,20,-99.99,,,-99.99,,2013-04-27 20:02:00,
2013-04-27 16:11:00,71.0,32.0,-100.00,North,355,7.0,10.0,23,-99.99,,,-99.99,,2013-04-27 20:11:00,
2013-04-27 16:21:00,72.0,32.0,-100.00,North,8,6.0,10.0,22,-99.99,,,-99.99,,2013-04-27 20:21:00,
2013-04-27 16:32:00,72.0,32.0,-100.00,North,0,6.0,10.0,22,-99.99,,,-99.99,,2013-04-27 20:32:00,
2013-04-27 16:42:00,73.0,32.0,-100.00,WNW,290,4.0,10.0,22,-99.99,,,-99.99,,2013-04-27 20:42:00,
2013-04-27 16:52:00,73.0,30.0,-100.00,NW,320,5.0,10.0,20,-99.99,,,-99.99,,2013-04-27 20:52:00,
2013-04-27 17:02:00,74.0,32.0,-100.00,WSW,255,3.0,10.0,22,-99.99,,,-99.99,,2013-04-27 21:02:00,
2013-04-27 17:12:00,73.0,30.0,-100.00,WNW,288,3.0,10.0,20,-99.99,,,-99.99,,2013-04-27 21:12:00,
2013-04-27 17:21:00,73.0,32.0,-100.00,NW,326,3.0,10.0,22,-99.99,,,-99.99,,2013-04-27 21:21:00,
2013-04-27 17:33:00,74.0,32.0,-100.00,NW,323,2.0,10.0,20,-99.99,,,-99.99,,2013-04-27 21:33:00,
2013-04-27 17:43:00,73.0,30.0,-100.00,North,0,2.0,10.0,19,-99.99,,,-99.99,,2013-04-27 21:43:00,
2013-04-27 17:53:00,73.0,32.0,-100.00,WNW,302,4.0,10.0,22,-99.99,,,-99.99,,2013-04-27 21:53:00,
2013-04-27 18:03:00,74.0,30.0,-100.00,West,268,4.0,10.0,20,-99.99,,,-99.99,,2013-04-27 22:03:00,
2013-04-27 18:13:00,73.0,30.0,-100.00,NNW,338,3.0,10.0,19,-99.99,,,-99.99,,2013-04-27 22:13:00,
2013-04-27 18:22:00,74.0,30.0,-100.00,ENE,60,4.0,10.0,19,0.00,,,-99.99,,2013-04-27 22:22:00,
2013-04-27 18:32:00,75.0,32.0,-100.00,NNE,28,4.0,10.0,20,-99.99,,,-99.99,,2013-04-27 22:32:00,
2013-04-27 18:42:00,74.0,30.0,-100.00,NW,312,3.0,10.0,19,-99.99,,,-99.99,,2013-04-27 22:42:00,
2013-04-27 18:52:00,73.0,30.0,-100.00,NW,316,4.0,10.0,19,-99.99,,,-99.99,,2013-04-27 22:52:00,
2013-04-27 19:02:00,73.0,28.0,-100.00,WSW,258,2.0,10.0,19,-99.99,,,-99.99,,2013-04-27 23:02:00,
2013-04-27 19:12:00,73.0,30.0,-100.00,NW,304,3.0,10.0,19,-99.99,,,-99.99,,2013-04-27 23:12:00,
2013-04-27 19:22:00,74.0,32.0,-100.00,NNW,336,2.0,10.0,22,-99.99,,,-99.99,,2013-04-27 23:22:00,
2013-04-27 19:32:00,73.0,28.0,-100.00,NW,306,2.0,10.0,19,-99.99,,,-99.99,,2013-04-27 23:32:00,
2013-04-27 19:42:00,73.0,28.0,-100.00,WNW,303,2.0,10.0,19,-99.99,,,-99.99,,2013-04-27 23:42:00,
2013-04-27 19:52:00,73.0,30.0,-100.00,NW,309,1.0,10.0,20,-99.99,,,-99.99,,2013-04-27 23:52:00,
2013-04-27 20:01:00,72.0,30.0,-100.00,WNW,297,1.0,10.0,20,-99.99,,,-99.99,,2013-04-28 00:01:00,
2013-04-27 20:12:00,71.0,28.0,-100.00,NW,310,1.0,10.0,20,-99.99,,,-99.99,,2013-04-28 00:12:00,
2013-04-27 20:21:00,73.0,32.0,-100.00,North,358,1.0,10.0,24,-99.99,,,-99.99,,2013-04-28 00:21:00,
2013-04-27 20:32:00,69.0,39.0,-100.00,South,190,0.0,10.0,36,-99.99,,,-99.99,,2013-04-28 00:32:00,
2013-04-27 20:43:00,64.0,39.0,-100.00,SE,139,0.0,10.0,42,-99.99,,,-99.99,,2013-04-28 00:43:00,
2013-04-27 20:52:00,65.0,41.0,-100.00,SSE,159,1.0,10.0,42,-99.99,,,-99.99,,2013-04-28 00:52:00,
2013-04-27 21:02:00,65.0,39.0,-100.00,SSE,153,0.0,10.0,42,-99.99,,,-99.99,,2013-04-28 01:02:00,
2013-04-27 21:11:00,64.0,39.0,-100.00,SSW,201,0.0,10.0,40,-99.99,,,-99.99,,2013-04-28 01:11:00,
2013-04-27 21:22:00,64.0,37.0,-100.00,SW,225,0.0,10.0,38,-99.99,,,-99.99,,2013-04-28 01:22:00,
2013-04-27 21:32:00,62.0,39.0,-100.00,South,189,0.0,10.0,44,0.00,,,-99.99,,2013-04-28 01:32:00,
2013-04-27 21:42:00,62.0,37.0,-100.00,SW,220,0.0,10.0,42,-99.99,,,-99.99,,2013-04-28 01:42:00,
2013-04-27 21:52:00,59.0,36.0,-100.00,SSW,207,0.0,10.0,44,-99.99,,,-99.99,,2013-04-28 01:52:00,
2013-04-27 22:02:00,59.0,36.0,-100.00,SSW,207,0.0,10.0,44,-99.99,,,-99.99,,2013-04-28 02:02:00,
2013-04-27 22:12:00,61.0,39.0,-100.00,West,280,1.0,10.0,46,-99.99,,,-99.99,,2013-04-28 02:12:00,
2013-04-27 22:22:00,57.0,37.0,-100.00,SW,220,0.0,10.0,49,-99.99,,,-99.99,,2013-04-28 02:22:00,
2013-04-27 22:32:00,56.0,37.0,-100.00,WSW,247,0.0,10.0,50,-99.99,,,-99.99,,2013-04-28 02:32:00,
2013-04-27 22:42:00,59.0,39.0,-100.00,WSW,249,0.0,10.0,51,-99.99,,,-99.99,,2013-04-28 02:42:00,
2013-04-27 22:52:00,58.0,41.0,-100.00,SW,217,1.0,10.0,55,-99.99,,,-99.99,,2013-04-28 02:52:00,
2013-04-27 23:01:00,55.0,36.0,-100.00,WSW,241,0.0,10.0,51,-99.99,,,-99.99,,2013-04-28 03:01:00,
2013-04-27 23:11:00,58.0,39.0,-100.00,West,272,1.0,10.0,53,-99.99,,,-99.99,,2013-04-28 03:11:00,
2013-04-27 23:21:00,53.0,37.0,-100.00,SW,216,0.0,10.0,56,-99.99,,,-99.99,,2013-04-28 03:21:00,
2013-04-27 23:33:00,53.0,37.0,-100.00,SW,234,1.0,10.0,58,-99.99,,,-99.99,,2013-04-28 03:33:00,
2013-04-27 23:43:00,55.0,39.0,-100.00,SW,224,1.0,10.0,58,-99.99,,,-99.99,,2013-04-28 03:43:00,
2013-04-27 23:53:00,56.0,41.0,-100.00,NE,45,1.0,10.0,59,-99.99,,,-99.99,,2013-04-28 03:53:00,